KPDX/PDX METAR and TAF weather

Enter ICAO airport designator
Station Type Date Time Source
KPDX METAR 2020/11/28 18:53 UTC NOAA

KPDX 281853Z 33003KT 2SM BR BKN005 OVC030 06/04 A3040 RMK AO2 TWR VIS 2 1/2 SLP295 T00560044


Station Type Date Time Source
KPDX Decoded METAR 2020/11/28 18:53 UTC NOAA

PORTLAND INTERNATIONAL AIRPORT, OR, United States (KPDX) 45-35N 122-36W 7M
Nov 28, 2020 - 01:53 PM EST / 2020.11.28 1853 UTC
Wind: from the NNW (330 degrees) at 3 MPH (3 KT):0
Visibility: 2 mile(s):0
Sky conditions: overcast
Weather: mist
Temperature: 42.1 F (5.6 C)
Dew Point: 39.9 F (4.4 C)
Relative Humidity: 91%
Pressure (altimeter): 30.4 in. Hg (1029 hPa)
ob: KPDX 281853Z 33003KT 2SM BR BKN005 OVC030 06/04 A3040 RMK AO2 TWR VIS 2 1/2 SLP295 T00560044
cycle: 19

Station Type Date Time Source
KPDX TAF 2020/11/28 18:42 UTC NOAA

TAF KPDX 281741Z 2818/2918 00000KT 2SM -RA BR BKN006 OVC013
FM282000 00000KT 5SM BR BKN008 OVC013
FM282200 00000KT P6SM SCT010 OVC018
FM290100 00000KT P6SM SCT015 BKN060
FM290600 VRB02KT 2SM BR OVC005

Example: see airport list